createdAt,value
2017-10-28T00:00:52.499Z,4.27
2017-10-28T00:03:19.113Z,6.33
2017-10-28T00:05:45.788Z,11.37
2017-10-28T00:08:12.359Z,7.30
2017-10-28T00:10:38.933Z,7.70
2017-10-28T00:13:05.556Z,3.60
2017-10-28T00:15:32.108Z,5.63
2017-10-28T00:17:58.683Z,5.27
2017-10-28T00:20:25.256Z,9.27
2017-10-28T00:22:51.832Z,3.93
2017-10-28T00:25:18.404Z,6.37
2017-10-28T00:27:44.997Z,7.83
2017-10-28T00:30:17.265Z,6.80
2017-10-28T00:32:49.441Z,4.53
2017-10-28T00:35:21.549Z,7.23
2017-10-28T00:37:48.148Z,5.47
2017-10-28T00:40:14.729Z,16.60
2017-10-28T00:42:41.421Z,8.90
2017-10-28T00:45:08.001Z,7.73
2017-10-28T00:47:34.573Z,10.77
2017-10-28T00:50:01.182Z,8.40
2017-10-28T00:52:27.747Z,14.10
2017-10-28T00:54:54.321Z,4.80
2017-10-28T00:57:20.910Z,11.40
2017-10-28T00:59:47.497Z,8.07
2017-10-28T01:02:14.077Z,7.53
2017-10-28T01:04:40.657Z,10.53
2017-10-28T01:07:07.237Z,8.43
2017-10-28T01:09:34.617Z,6.57
2017-10-28T01:12:01.188Z,8.10
2017-10-28T01:14:27.764Z,4.10
2017-10-28T01:16:54.340Z,10.77
2017-10-28T01:19:20.912Z,7.10
2017-10-28T01:21:47.481Z,8.20
2017-10-28T01:24:14.061Z,4.90
2017-10-28T01:26:40.642Z,10.17
2017-10-28T01:29:07.216Z,6.23
2017-10-28T01:31:33.789Z,6.80
2017-10-28T01:34:00.361Z,4.87
2017-10-28T01:36:26.937Z,8.60
2017-10-28T01:38:53.515Z,7.93
2017-10-28T01:41:20.089Z,8.00
2017-10-28T01:43:46.677Z,6.07
2017-10-28T01:46:13.254Z,8.90
2017-10-28T01:48:39.832Z,9.00
2017-10-28T01:51:06.425Z,15.17
2017-10-28T01:53:33.000Z,12.43
2017-10-28T01:55:59.574Z,9.13
2017-10-28T01:58:26.157Z,10.37
2017-10-28T02:00:52.737Z,13.73
2017-10-28T02:03:19.308Z,11.27
2017-10-28T02:05:45.881Z,10.73
2017-10-28T02:08:12.573Z,7.93
2017-10-28T02:10:39.124Z,14.00
2017-10-28T02:13:05.817Z,12.57
2017-10-28T02:15:32.388Z,14.93
2017-10-28T02:17:59.005Z,12.60
2017-10-28T02:20:25.595Z,11.47
2017-10-28T02:22:52.176Z,13.23
2017-10-28T02:25:18.769Z,12.43
2017-10-28T02:27:45.344Z,10.57
2017-10-28T02:30:11.926Z,13.70
2017-10-28T02:32:38.502Z,9.90
2017-10-28T02:35:05.092Z,14.90
2017-10-28T02:37:31.662Z,13.03
2017-10-28T02:39:58.237Z,13.43
2017-10-28T02:42:24.813Z,9.30
2017-10-28T02:44:51.394Z,15.73
2017-10-28T02:47:17.984Z,15.30
2017-10-28T02:49:44.598Z,12.63
2017-10-28T02:52:11.198Z,17.13
2017-10-28T02:54:37.768Z,17.40
2017-10-28T02:57:04.365Z,20.00
2017-10-28T02:59:30.937Z,12.53
2017-10-28T03:01:57.508Z,12.63
2017-10-28T03:04:24.088Z,18.73
2017-10-28T03:06:50.669Z,14.97
2017-10-28T03:09:17.249Z,20.03
2017-10-28T03:11:43.826Z,21.17
2017-10-28T03:14:10.404Z,14.77
2017-10-28T03:16:36.976Z,13.87
2017-10-28T03:19:03.572Z,12.23
2017-10-28T03:21:30.152Z,15.23
2017-10-28T03:23:56.811Z,11.87
2017-10-28T03:26:23.395Z,14.97
2017-10-28T03:28:49.965Z,14.90
2017-10-28T03:31:16.546Z,10.17
2017-10-28T03:33:43.113Z,13.90
2017-10-28T03:36:09.692Z,12.70
2017-10-28T03:38:36.264Z,11.47
2017-10-28T03:41:02.853Z,17.47
2017-10-28T03:43:29.428Z,14.70
2017-10-28T03:45:56.002Z,12.40
2017-10-28T03:48:22.580Z,14.03
2017-10-28T03:50:49.156Z,15.13
2017-10-28T03:53:15.740Z,12.37
2017-10-28T03:55:42.318Z,19.40
2017-10-28T03:58:08.899Z,17.30
2017-10-28T04:00:35.473Z,13.70
2017-10-28T04:03:02.070Z,12.57
2017-10-28T04:05:28.640Z,13.03
2017-10-28T04:07:55.223Z,17.23
2017-10-28T04:10:21.800Z,17.40
2017-10-28T04:12:48.377Z,20.50
2017-10-28T04:15:15.014Z,14.57
2017-10-28T04:17:41.573Z,12.67
2017-10-28T04:20:08.152Z,10.63
2017-10-28T04:22:34.724Z,12.60
2017-10-28T04:25:01.306Z,13.57
2017-10-28T04:27:27.881Z,9.40
2017-10-28T04:29:54.450Z,8.73
2017-10-28T04:32:21.043Z,11.00
2017-10-28T04:34:47.602Z,9.10
2017-10-28T04:37:14.188Z,19.87
2017-10-28T04:39:40.765Z,11.83
2017-10-28T04:42:07.348Z,15.47
2017-10-28T04:44:33.924Z,11.40
2017-10-28T04:47:00.501Z,8.67
2017-10-28T04:49:27.072Z,17.27
2017-10-28T04:51:53.640Z,9.70
2017-10-28T04:54:20.225Z,13.47
2017-10-28T04:56:46.801Z,13.37
2017-10-28T04:59:13.396Z,12.30
2017-10-28T05:01:39.969Z,10.13
2017-10-28T05:04:06.547Z,21.63
2017-10-28T05:06:33.129Z,12.37
2017-10-28T05:08:59.709Z,15.50
2017-10-28T05:11:26.304Z,14.63
2017-10-28T05:13:52.873Z,12.50
2017-10-28T05:16:19.470Z,12.53
2017-10-28T05:18:46.044Z,13.93
2017-10-28T05:21:12.618Z,12.23
2017-10-28T05:23:39.194Z,12.80
2017-10-28T05:26:05.768Z,16.43
2017-10-28T05:28:32.355Z,11.17
2017-10-28T05:30:58.938Z,18.37
2017-10-28T05:33:25.514Z,15.93
2017-10-28T05:35:52.098Z,10.70
2017-10-28T05:38:18.664Z,13.63
2017-10-28T05:40:45.244Z,13.17
2017-10-28T05:43:11.824Z,17.67
2017-10-28T05:45:38.407Z,16.80
2017-10-28T05:48:04.978Z,12.37
2017-10-28T05:50:31.561Z,16.57
2017-10-28T05:52:58.132Z,16.60
2017-10-28T05:55:24.715Z,15.40
2017-10-28T05:57:51.293Z,17.23
2017-10-28T06:00:18.657Z,16.43
2017-10-28T06:02:45.239Z,16.27
2017-10-28T06:05:11.816Z,18.70
2017-10-28T06:07:38.421Z,15.90
2017-10-28T06:10:04.996Z,17.40
2017-10-28T06:12:31.575Z,14.13
2017-10-28T06:14:58.158Z,19.20
2017-10-28T06:17:24.736Z,12.33
2017-10-28T06:19:51.316Z,12.57
2017-10-28T06:22:17.887Z,14.37
2017-10-28T06:24:44.468Z,15.90
2017-10-28T06:27:11.072Z,13.33
2017-10-28T06:29:37.662Z,15.23
2017-10-28T06:32:04.240Z,16.20
2017-10-28T06:34:30.816Z,15.73
2017-10-28T06:36:57.401Z,13.67
2017-10-28T06:39:23.968Z,11.40
2017-10-28T06:41:50.552Z,13.57
2017-10-28T06:44:17.210Z,11.63
2017-10-28T06:46:43.780Z,13.77
2017-10-28T06:49:10.358Z,15.77
2017-10-28T06:51:36.953Z,16.93
2017-10-28T06:54:03.539Z,10.97
2017-10-28T06:56:40.256Z,19.93
2017-10-28T06:59:06.840Z,16.40
2017-10-28T07:01:33.408Z,14.13
2017-10-28T07:04:00.018Z,14.67
2017-10-28T07:06:26.593Z,15.80
2017-10-28T07:08:53.176Z,17.83
2017-10-28T07:11:19.749Z,10.67
2017-10-28T07:13:46.334Z,11.53
2017-10-28T07:16:12.927Z,14.10
2017-10-28T07:18:39.685Z,12.83
2017-10-28T07:21:06.299Z,12.07
2017-10-28T07:23:33.808Z,14.43
2017-10-28T07:26:00.415Z,17.43
2017-10-28T07:28:26.985Z,21.20
2017-10-28T07:30:53.560Z,14.57
2017-10-28T07:33:20.132Z,16.90
2017-10-28T07:35:46.716Z,19.33
2017-10-28T07:38:13.292Z,14.63
2017-10-28T07:40:39.865Z,14.50
2017-10-28T07:43:06.452Z,17.10
2017-10-28T07:45:33.036Z,11.97
2017-10-28T07:47:59.612Z,12.27
2017-10-28T07:50:26.185Z,14.70
2017-10-28T07:52:52.819Z,14.70
2017-10-28T07:55:19.376Z,11.80
2017-10-28T07:57:45.957Z,10.30
2017-10-28T08:00:12.537Z,11.70
2017-10-28T08:02:39.108Z,16.80
2017-10-28T08:05:05.797Z,13.80
2017-10-28T08:07:32.352Z,18.63
2017-10-28T08:09:58.940Z,17.03
2017-10-28T08:12:25.526Z,19.10
2017-10-28T08:14:52.105Z,17.07
2017-10-28T08:17:18.684Z,19.40
2017-10-28T08:19:45.257Z,23.17
2017-10-28T08:22:11.935Z,19.63
2017-10-28T08:24:38.492Z,17.80
2017-10-28T08:27:05.077Z,12.60
2017-10-28T08:29:31.644Z,13.03
2017-10-28T08:31:58.240Z,15.13
2017-10-28T08:34:24.809Z,15.50
2017-10-28T08:36:51.384Z,13.57
2017-10-28T08:39:17.977Z,15.80
2017-10-28T08:41:44.576Z,14.40
2017-10-28T08:44:11.161Z,17.33
2017-10-28T08:46:37.732Z,15.50
2017-10-28T08:49:04.329Z,14.70
2017-10-28T08:51:30.905Z,14.30
2017-10-28T08:53:57.487Z,11.03
2017-10-28T08:56:24.065Z,14.17
2017-10-28T08:58:50.660Z,15.30
2017-10-28T09:01:17.244Z,11.40
2017-10-28T09:03:43.817Z,12.80
2017-10-28T09:06:10.433Z,16.83
2017-10-28T09:08:36.996Z,21.10
2017-10-28T09:11:03.596Z,16.10
2017-10-28T09:13:30.180Z,13.13
2017-10-28T09:15:56.784Z,15.80
2017-10-28T09:18:23.389Z,14.90
2017-10-28T09:20:49.969Z,12.10
2017-10-28T09:23:16.541Z,13.43
2017-10-28T09:25:43.124Z,20.07
2017-10-28T09:28:09.701Z,15.07
2017-10-28T09:30:36.292Z,16.33
2017-10-28T09:33:02.885Z,18.83
2017-10-28T09:35:29.455Z,14.40
2017-10-28T09:37:56.041Z,13.80
2017-10-28T09:40:22.625Z,12.57
2017-10-28T09:42:49.209Z,22.47
2017-10-28T09:45:15.798Z,10.93
2017-10-28T09:47:42.551Z,13.40
2017-10-28T09:50:09.258Z,12.60
2017-10-28T09:52:35.951Z,15.10
2017-10-28T09:55:02.635Z,17.23
2017-10-28T09:57:29.214Z,28.23
2017-10-28T09:59:56.528Z,20.23
2017-10-28T10:02:23.269Z,15.63
2017-10-28T10:04:53.796Z,10.90
2017-10-28T10:07:27.788Z,12.97
2017-10-28T10:09:55.864Z,15.67
2017-10-28T10:12:22.446Z,15.27
2017-10-28T10:14:49.017Z,14.23
2017-10-28T10:17:15.755Z,12.57
2017-10-28T10:19:42.315Z,11.77
2017-10-28T10:22:08.898Z,16.43
2017-10-28T10:24:35.578Z,19.20
2017-10-28T10:27:02.165Z,14.67
2017-10-28T10:29:28.743Z,17.70
2017-10-28T10:31:55.325Z,12.37
2017-10-28T10:34:21.915Z,11.33
2017-10-28T10:36:48.488Z,23.67
2017-10-28T10:39:15.108Z,13.73
2017-10-28T10:41:44.633Z,12.57
2017-10-28T10:44:11.216Z,12.93
2017-10-28T10:46:37.806Z,11.60
2017-10-28T10:49:04.384Z,12.47
2017-10-28T10:51:30.964Z,16.33
2017-10-28T10:53:57.540Z,12.30
2017-10-28T10:56:24.177Z,12.07
2017-10-28T10:58:50.745Z,8.53
2017-10-28T11:01:17.390Z,8.77
2017-10-28T11:03:43.965Z,11.67
2017-10-28T11:06:11.313Z,12.10
2017-10-28T11:08:44.711Z,9.33
2017-10-28T11:11:15.056Z,11.77
2017-10-28T11:13:44.625Z,9.83
2017-10-28T11:16:17.084Z,15.53
2017-10-28T11:18:47.302Z,9.90
2017-10-28T11:21:14.125Z,8.03
2017-10-28T11:23:40.854Z,10.23
2017-10-28T11:26:07.556Z,10.60
2017-10-28T11:28:34.165Z,12.43
2017-10-28T11:31:00.720Z,13.40
2017-10-28T11:33:27.292Z,9.93
2017-10-28T11:35:53.881Z,16.37
2017-10-28T11:38:20.458Z,14.93
2017-10-28T11:40:47.081Z,17.67
2017-10-28T11:43:13.641Z,9.77
2017-10-28T11:45:40.233Z,11.97
2017-10-28T11:48:06.800Z,12.23
2017-10-28T11:50:33.389Z,12.87
2017-10-28T11:52:59.964Z,9.07
2017-10-28T11:55:26.540Z,12.20
2017-10-28T11:57:53.344Z,11.53
2017-10-28T12:00:20.018Z,9.27
2017-10-28T12:02:46.648Z,11.80
2017-10-28T12:05:14.575Z,13.43
2017-10-28T12:07:41.223Z,12.60
2017-10-28T12:10:07.887Z,12.90
2017-10-28T12:12:34.554Z,23.37
2017-10-28T12:15:01.217Z,10.80
2017-10-28T12:17:27.803Z,10.77
2017-10-28T12:19:54.424Z,15.33
2017-10-28T12:22:21.109Z,15.73
2017-10-28T12:24:48.763Z,10.50
2017-10-28T12:27:15.603Z,13.03
2017-10-28T12:29:42.222Z,12.47
2017-10-28T12:32:08.865Z,19.77
2017-10-28T12:34:39.883Z,11.97
2017-10-28T12:37:07.089Z,10.70
2017-10-28T12:39:41.695Z,15.93
2017-10-28T12:42:15.086Z,15.93
2017-10-28T12:44:51.688Z,19.57
2017-10-28T12:47:18.358Z,17.80
2017-10-28T12:49:51.918Z,14.02
2017-10-28T12:52:21.846Z,14.77
2017-10-28T12:54:54.266Z,13.40
2017-10-28T12:57:20.889Z,14.10
2017-10-28T12:59:47.506Z,14.53
2017-10-28T13:02:14.097Z,12.50
2017-10-28T13:04:40.659Z,12.23
2017-10-28T13:07:07.272Z,11.73
2017-10-28T13:09:33.844Z,12.37
2017-10-28T13:12:00.425Z,18.40
2017-10-28T13:14:27.010Z,12.23
2017-10-28T13:16:53.581Z,13.43
2017-10-28T13:19:20.164Z,13.87
2017-10-28T13:21:46.742Z,11.30
2017-10-28T13:24:13.316Z,10.80
2017-10-28T13:26:41.097Z,12.00
2017-10-28T13:29:07.656Z,14.23
2017-10-28T13:31:34.249Z,17.97
2017-10-28T13:34:00.837Z,14.23
2017-10-28T13:36:27.408Z,12.33
2017-10-28T13:38:53.996Z,16.10
2017-10-28T13:41:20.572Z,13.47
2017-10-28T13:43:47.163Z,14.43
2017-10-28T13:46:13.750Z,13.20
2017-10-28T13:48:40.320Z,13.77
2017-10-28T13:51:06.929Z,9.80
2017-10-28T13:53:33.501Z,16.17
2017-10-28T13:56:00.084Z,13.00
2017-10-28T13:58:26.669Z,13.00
2017-10-28T14:00:53.981Z,13.10
2017-10-28T14:03:20.553Z,14.67
2017-10-28T14:05:47.132Z,15.77
2017-10-28T14:08:13.714Z,11.43
2017-10-28T14:10:40.289Z,12.07
2017-10-28T14:13:06.930Z,12.07
2017-10-28T14:15:33.581Z,16.00
2017-10-28T14:18:00.139Z,13.83
2017-10-28T14:20:26.734Z,14.47
2017-10-28T14:22:53.316Z,14.47
2017-10-28T14:25:19.893Z,11.17
2017-10-28T14:27:46.473Z,13.23
2017-10-28T14:30:13.069Z,17.57
2017-10-28T14:32:39.648Z,12.93
2017-10-28T14:35:06.261Z,14.33
2017-10-28T14:37:32.845Z,10.57
2017-10-28T14:39:59.419Z,11.50
2017-10-28T14:42:25.989Z,10.30
2017-10-28T14:44:53.378Z,14.63
2017-10-28T14:47:19.929Z,17.40
2017-10-28T14:49:46.518Z,9.40
2017-10-28T14:52:13.080Z,9.30
2017-10-28T14:54:39.652Z,14.40
2017-10-28T14:57:06.249Z,11.80
2017-10-28T14:59:32.828Z,12.20
2017-10-28T15:01:59.412Z,11.37
2017-10-28T15:04:25.973Z,9.20
2017-10-28T15:06:52.565Z,11.63
2017-10-28T15:09:19.132Z,11.93
2017-10-28T15:11:45.717Z,10.47
2017-10-28T15:14:12.307Z,10.93
2017-10-28T15:16:38.888Z,12.55
2017-10-28T15:19:05.476Z,11.90
2017-10-28T15:21:32.081Z,15.17
2017-10-28T15:23:58.652Z,15.00
2017-10-28T15:26:25.242Z,14.53
2017-10-28T15:28:51.817Z,16.87
2017-10-28T15:31:18.416Z,11.37
2017-10-28T15:33:44.972Z,8.37
2017-10-28T15:36:11.557Z,11.77
2017-10-28T15:38:38.133Z,11.37
2017-10-28T15:41:04.711Z,13.73
2017-10-28T15:43:31.284Z,11.97
2017-10-28T15:45:57.863Z,11.20
2017-10-28T15:48:25.776Z,12.30
2017-10-28T15:50:52.324Z,9.00
2017-10-28T15:53:18.911Z,13.57
2017-10-28T15:55:45.483Z,11.47
2017-10-28T15:58:12.057Z,12.80
2017-10-28T16:00:38.637Z,13.43
2017-10-28T16:03:05.588Z,13.23
2017-10-28T16:05:32.196Z,11.17
2017-10-28T16:07:58.772Z,15.47
2017-10-28T16:10:25.460Z,9.13
2017-10-28T16:12:52.036Z,11.60
2017-10-28T16:15:18.612Z,10.67
2017-10-28T16:17:45.194Z,12.20
2017-10-28T16:20:11.772Z,13.10
2017-10-28T16:22:38.348Z,8.57
2017-10-28T16:25:04.936Z,9.63
2017-10-28T16:27:31.528Z,10.90
2017-10-28T16:29:58.097Z,11.03
2017-10-28T16:32:24.670Z,11.10
2017-10-28T16:34:51.251Z,12.00
2017-10-28T16:37:17.828Z,9.00
2017-10-28T16:39:44.432Z,11.47
2017-10-28T16:42:11.071Z,14.20
2017-10-28T16:44:37.628Z,11.57
2017-10-28T16:47:04.202Z,8.50
2017-10-28T16:49:30.776Z,12.43
2017-10-28T16:51:59.222Z,12.50
2017-10-28T16:54:25.947Z,11.90
2017-10-28T16:56:58.540Z,11.20
2017-10-28T16:59:25.124Z,13.73
2017-10-28T17:01:51.708Z,13.77
2017-10-28T17:04:18.379Z,17.63
2017-10-28T17:06:45.024Z,15.97
2017-10-28T17:09:14.662Z,8.90
2017-10-28T17:11:41.244Z,13.40
2017-10-28T17:14:07.844Z,14.30
2017-10-28T17:16:34.421Z,11.70
2017-10-28T17:19:00.999Z,13.37
2017-10-28T17:21:27.576Z,13.30
2017-10-28T17:23:54.188Z,9.37
2017-10-28T17:26:20.807Z,8.83
2017-10-28T17:28:49.052Z,10.50
2017-10-28T17:31:18.864Z,11.60
2017-10-28T17:33:51.232Z,8.77
2017-10-28T17:36:17.863Z,9.30
2017-10-28T17:38:50.952Z,8.33
2017-10-28T17:41:17.526Z,8.43
2017-10-28T17:43:52.638Z,8.53
2017-10-28T17:46:19.196Z,8.90
2017-10-28T17:48:45.793Z,11.70
2017-10-28T17:51:12.368Z,7.30
2017-10-28T17:53:38.964Z,15.13
2017-10-28T17:56:05.617Z,7.80
2017-10-28T17:58:32.178Z,12.50
2017-10-28T18:00:58.890Z,10.33
2017-10-28T18:03:25.456Z,10.70
2017-10-28T18:05:52.090Z,11.77
2017-10-28T18:08:24.820Z,9.10
2017-10-28T18:10:51.408Z,11.27
2017-10-28T18:13:17.977Z,10.10
2017-10-28T18:15:44.572Z,9.37
2017-10-28T18:18:11.152Z,11.97
2017-10-28T18:20:37.728Z,7.63
2017-10-28T18:23:04.301Z,9.00
2017-10-28T18:25:30.876Z,8.80
2017-10-28T18:27:57.462Z,8.47
2017-10-28T18:30:24.030Z,9.33
2017-10-28T18:32:50.605Z,13.27
2017-10-28T18:35:17.180Z,9.93
2017-10-28T18:37:43.763Z,12.50
2017-10-28T18:40:10.335Z,8.20
2017-10-28T18:42:36.909Z,10.40
2017-10-28T18:45:03.562Z,9.30
2017-10-28T18:47:30.148Z,13.03
2017-10-28T18:49:56.720Z,9.50
2017-10-28T18:52:23.301Z,8.80
2017-10-28T18:54:49.884Z,8.20
2017-10-28T18:57:16.498Z,8.80
2017-10-28T19:02:27.028Z,8.20
2017-10-28T19:04:53.592Z,8.20
2017-10-28T19:07:20.161Z,8.77
2017-10-28T19:09:47.046Z,11.27
2017-10-28T19:12:13.612Z,7.87
2017-10-28T19:14:40.193Z,9.70
2017-10-28T19:17:06.852Z,8.97
2017-10-28T19:19:33.420Z,9.70
2017-10-28T19:22:00.088Z,11.03
2017-10-28T19:24:26.665Z,11.20
2017-10-28T19:26:53.246Z,10.90
2017-10-28T19:29:19.811Z,12.10
2017-10-28T19:31:46.438Z,10.20
2017-10-28T19:34:13.016Z,13.80
2017-10-28T19:36:39.594Z,11.00
2017-10-28T19:39:06.208Z,11.77
2017-10-28T19:41:32.784Z,15.80
2017-10-28T19:44:00.684Z,14.00
2017-10-28T19:46:30.537Z,14.82
2017-10-28T19:48:57.112Z,14.00
2017-10-28T19:51:23.692Z,14.50
2017-10-28T19:53:50.300Z,13.50
2017-10-28T19:56:16.889Z,19.13
2017-10-28T19:58:43.464Z,18.80
2017-10-28T20:01:10.079Z,16.10
2017-10-28T20:03:36.648Z,17.40
2017-10-28T20:06:03.789Z,15.63
2017-10-28T20:08:30.363Z,19.90
2017-10-28T20:11:03.283Z,18.83
2017-10-28T20:13:36.012Z,17.47
2017-10-28T20:16:02.595Z,24.53
2017-10-28T20:18:29.223Z,19.93
2017-10-28T20:21:02.367Z,20.53
2017-10-28T20:23:28.943Z,24.87
2017-10-28T20:26:01.852Z,20.50
2017-10-28T20:28:28.436Z,26.63
2017-10-28T20:30:55.024Z,25.23
2017-10-28T20:33:21.615Z,25.07
2017-10-28T20:35:48.192Z,29.53
2017-10-28T20:38:14.786Z,23.90
2017-10-28T20:40:48.913Z,27.70
2017-10-28T20:43:15.483Z,23.73
2017-10-28T20:45:42.069Z,28.23
2017-10-28T20:48:08.652Z,31.77
2017-10-28T20:50:35.224Z,25.20
2017-10-28T20:53:01.823Z,31.10
2017-10-28T20:55:28.432Z,22.43
2017-10-28T20:57:55.009Z,24.57
2017-10-28T21:00:21.592Z,24.90
2017-10-28T21:02:48.187Z,28.90
2017-10-28T21:05:14.766Z,21.77
2017-10-28T21:07:41.335Z,23.13
2017-10-28T21:10:07.925Z,23.37
2017-10-28T21:12:34.504Z,18.43
2017-10-28T21:15:01.080Z,22.87
2017-10-28T21:17:27.676Z,18.00
2017-10-28T21:19:54.256Z,20.30
2017-10-28T21:22:20.836Z,19.70
2017-10-28T21:24:47.463Z,16.43
2017-10-28T21:27:14.020Z,17.07
2017-10-28T21:29:40.600Z,19.47
2017-10-28T21:32:07.217Z,18.47
2017-10-28T21:34:33.789Z,19.30
2017-10-28T21:37:00.368Z,17.57
2017-10-28T21:39:27.070Z,18.70
2017-10-28T21:41:53.692Z,18.90
2017-10-28T21:44:20.299Z,18.07
2017-10-28T21:46:46.981Z,16.50
2017-10-28T21:49:13.552Z,14.43
2017-10-28T21:51:40.128Z,15.13
2017-10-28T21:54:06.816Z,16.03
2017-10-28T21:56:33.403Z,15.47
2017-10-28T21:58:59.977Z,13.80
2017-10-28T22:01:26.626Z,14.93
2017-10-28T22:03:53.200Z,14.93
2017-10-28T22:06:19.779Z,16.03
2017-10-28T22:08:46.360Z,17.37
2017-10-28T22:11:12.944Z,20.70
2017-10-28T22:13:39.516Z,17.83
2017-10-28T22:16:06.147Z,15.27
2017-10-28T22:18:32.747Z,19.70
2017-10-28T22:20:59.324Z,20.73
2017-10-28T22:23:26.013Z,18.70
2017-10-28T22:25:52.590Z,20.77
2017-10-28T22:28:19.169Z,21.10
2017-10-28T22:30:45.770Z,24.13
2017-10-28T22:33:12.350Z,22.23
2017-10-28T22:35:38.963Z,24.40
2017-10-28T22:38:05.644Z,24.00
2017-10-28T22:40:32.224Z,28.60
2017-10-28T22:42:58.800Z,27.43
2017-10-28T22:45:25.408Z,29.73
2017-10-28T22:47:51.981Z,32.10
2017-10-28T22:50:18.557Z,30.63
2017-10-28T22:52:45.157Z,26.57
2017-10-28T22:55:11.738Z,30.90
2017-10-28T22:57:38.316Z,28.70
2017-10-28T23:00:04.904Z,34.00
2017-10-28T23:02:31.480Z,37.60
2017-10-28T23:04:58.056Z,34.87
2017-10-28T23:07:24.736Z,34.33
2017-10-28T23:09:51.311Z,32.50
2017-10-28T23:12:17.892Z,31.70
2017-10-28T23:14:44.481Z,37.50
2017-10-28T23:17:11.056Z,35.10
2017-10-28T23:19:37.636Z,41.70
2017-10-28T23:22:04.224Z,35.20
2017-10-28T23:24:31.180Z,34.90
2017-10-28T23:26:57.761Z,41.67
2017-10-28T23:29:24.363Z,39.47
2017-10-28T23:31:50.956Z,42.77
2017-10-28T23:34:17.572Z,34.37
2017-10-28T23:36:44.242Z,33.97
2017-10-28T23:39:10.812Z,32.27
2017-10-28T23:41:37.393Z,35.07
2017-10-28T23:44:04.076Z,34.83
2017-10-28T23:46:30.667Z,33.93
2017-10-28T23:48:57.291Z,31.77
2017-10-28T23:51:23.903Z,33.83
2017-10-28T23:53:50.475Z,31.50
2017-10-28T23:56:17.104Z,30.20
2017-10-28T23:58:43.696Z,26.63
